Terminal Aerodrome Forecast
Issued by NWS Sioux Falls, SD

Home | Current Version | Previous Version | Graphics & Text | Print | Product List | Glossary Off
Versions: 1 2 3 4 5 6 7 8 9 10 11 12 13 14 15 16

000
FTUS43 KFSD 272320
TAFHON
TAF
KHON 272320Z 2800/2824 13009KT P6SM SCT010 OVC040
     FM281500 15014G21KT P6SM SCT200
     FM281800 16017G25KT P6SM SCT200=

USA.gov is the U.S. government's official web portal to all federal, state and local government web resources and services.